createdAt,value
2023-02-24T00:06:56.735Z,1.7
2023-02-24T00:14:29.051Z,1.7
2023-02-24T00:22:01.366Z,1.7
2023-02-24T00:29:33.710Z,1.7
2023-02-24T00:37:06.039Z,1.7
2023-02-24T00:44:38.377Z,1.7
2023-02-24T00:52:10.682Z,1.7
2023-02-24T00:59:43.003Z,1.7
2023-02-24T01:07:15.326Z,1.7
2023-02-24T01:14:47.726Z,1.7
2023-02-24T01:22:20.146Z,1.7
2023-02-24T01:29:52.490Z,1.7
2023-02-24T01:37:24.816Z,1.7
2023-02-24T01:44:57.185Z,1.7
2023-02-24T01:52:29.514Z,1.7
2023-02-24T02:00:01.847Z,1.7
2023-02-24T02:07:34.189Z,1.7
2023-02-24T02:15:06.516Z,1.7
2023-02-24T02:22:38.834Z,1.7
2023-02-24T02:30:11.157Z,1.7
2023-02-24T02:37:43.489Z,1.7
2023-02-24T02:45:15.846Z,1.7
2023-02-24T02:52:48.164Z,1.6
2023-02-24T03:00:20.481Z,1.6
2023-02-24T03:07:52.800Z,1.6
2023-02-24T03:15:25.112Z,1.6
2023-02-24T03:22:57.447Z,1.6
2023-02-24T03:30:29.869Z,1.6
2023-02-24T03:38:02.231Z,1.6
2023-02-24T03:45:34.565Z,1.6
2023-02-24T03:53:06.865Z,1.6
2023-02-24T04:00:39.295Z,1.6
2023-02-24T04:08:11.638Z,1.6
2023-02-24T04:15:44.112Z,1.6
2023-02-24T04:23:16.512Z,1.6
2023-02-24T04:30:48.890Z,1.6
2023-02-24T04:38:21.225Z,1.6
2023-02-24T04:45:53.545Z,1.6
2023-02-24T04:53:25.902Z,1.6
2023-02-24T05:00:58.246Z,1.6
2023-02-24T05:08:31.041Z,1.6
2023-02-24T05:11:20.881Z,1.6
2023-02-24T05:12:08.346Z,1.6
2023-02-24T05:12:55.659Z,1.6
2023-02-24T05:13:42.975Z,1.6
2023-02-24T05:14:30.299Z,1.6
2023-02-24T05:15:17.611Z,1.6
2023-02-24T05:16:05.028Z,1.6
2023-02-24T05:16:52.455Z,1.6
2023-02-24T05:17:39.875Z,1.6
2023-02-24T05:18:27.183Z,1.6
2023-02-24T05:19:14.505Z,1.6
2023-02-24T05:20:01.809Z,1.6
2023-02-24T05:20:49.101Z,1.6
2023-02-24T05:21:36.480Z,1.6
2023-02-24T05:22:23.842Z,1.6
2023-02-24T05:23:11.152Z,1.6
2023-02-24T05:23:58.476Z,1.6
2023-02-24T05:24:45.981Z,1.6
2023-02-24T05:25:33.292Z,1.6
2023-02-24T05:26:20.615Z,1.6
2023-02-24T05:27:07.910Z,1.6
2023-02-24T05:27:55.229Z,1.6
2023-02-24T05:28:43.148Z,1.6
2023-02-24T05:29:30.534Z,1.6
2023-02-24T05:30:17.833Z,1.6
2023-02-24T05:31:05.201Z,1.6
2023-02-24T05:31:52.572Z,1.6
2023-02-24T05:32:39.985Z,1.6
2023-02-24T05:33:27.300Z,1.6
2023-02-24T05:34:14.622Z,1.6
2023-02-24T05:35:02.206Z,1.6
2023-02-24T05:35:49.534Z,1.6
2023-02-24T05:36:36.847Z,1.6
2023-02-24T05:37:24.222Z,1.6
2023-02-24T05:38:11.590Z,1.6
2023-02-24T05:38:58.920Z,1.6
2023-02-24T05:39:46.252Z,1.6
2023-02-24T05:40:33.581Z,1.6
2023-02-24T05:41:21.178Z,1.6
2023-02-24T05:42:08.852Z,1.6
2023-02-24T05:42:56.155Z,1.6
2023-02-24T05:43:43.467Z,1.6
2023-02-24T05:44:30.785Z,1.6
2023-02-24T05:45:18.107Z,1.6
2023-02-24T05:46:05.419Z,3.2
2023-02-24T05:46:52.811Z,3.2
2023-02-24T05:47:40.156Z,3.2
2023-02-24T05:48:27.544Z,3.2
2023-02-24T05:49:14.861Z,3.2
2023-02-24T05:50:02.192Z,3.2
2023-02-24T05:50:49.522Z,3.2
2023-02-24T05:51:36.873Z,3.2
2023-02-24T05:52:24.190Z,3.2
2023-02-24T05:53:11.502Z,3.2
2023-02-24T05:53:58.792Z,3.2
2023-02-24T05:54:46.108Z,3.2
2023-02-24T05:55:33.434Z,3.2
2023-02-24T05:56:20.751Z,3.2
2023-02-24T05:57:08.060Z,3.2
2023-02-24T05:57:55.551Z,3.2
2023-02-24T05:58:42.957Z,3.2
2023-02-24T05:59:30.285Z,3.2
2023-02-24T06:00:17.753Z,3.2
2023-02-24T06:01:05.149Z,3.2
2023-02-24T06:01:52.974Z,3.2
2023-02-24T06:02:40.350Z,3.2
2023-02-24T06:03:27.720Z,3.2
2023-02-24T06:04:15.045Z,3.2
2023-02-24T06:05:02.346Z,3.2
2023-02-24T06:05:49.673Z,3.2
2023-02-24T06:06:36.984Z,3.2
2023-02-24T06:07:24.326Z,3.2
2023-02-24T06:08:11.734Z,3.2
2023-02-24T06:08:59.098Z,3.2
2023-02-24T06:09:46.459Z,3.2
2023-02-24T06:10:33.762Z,3.2
2023-02-24T06:11:21.559Z,3.2
2023-02-24T06:12:09.275Z,3.2
2023-02-24T06:12:56.655Z,3.2
2023-02-24T06:13:44.198Z,3.2
2023-02-24T06:14:31.673Z,3.2
2023-02-24T06:15:19.032Z,3.2
2023-02-24T06:16:06.537Z,3.2
2023-02-24T06:16:53.941Z,3.2
2023-02-24T06:17:41.299Z,3.2
2023-02-24T06:18:28.618Z,3.2
2023-02-24T06:19:17.616Z,3.2
2023-02-24T06:20:05.089Z,3.2
2023-02-24T06:20:52.438Z,3.2
2023-02-24T06:21:39.743Z,3.2
2023-02-24T06:22:27.210Z,3.2
2023-02-24T06:23:14.524Z,3.2
2023-02-24T06:24:01.822Z,3.2
2023-02-24T06:24:49.164Z,3.2
2023-02-24T06:25:36.520Z,3.2
2023-02-24T06:26:23.822Z,3.2
2023-02-24T06:27:11.132Z,3.2
2023-02-24T06:27:58.528Z,3.2
2023-02-24T06:28:45.848Z,3.2
2023-02-24T06:29:33.369Z,3.2
2023-02-24T06:30:20.779Z,3.2
2023-02-24T06:31:08.117Z,3.2
2023-02-24T06:31:55.531Z,3.2
2023-02-24T06:32:43.152Z,3.2
2023-02-24T06:33:30.866Z,3.2
2023-02-24T06:34:18.190Z,3.2
2023-02-24T06:35:05.544Z,3.2
2023-02-24T06:35:52.968Z,3.2
2023-02-24T06:36:40.301Z,3.2
2023-02-24T06:37:27.619Z,3.2
2023-02-24T06:38:15.059Z,3.2
2023-02-24T06:39:02.382Z,3.2
2023-02-24T06:39:49.702Z,3.2
2023-02-24T06:40:37.148Z,3.2
2023-02-24T06:41:24.468Z,3.2
2023-02-24T06:42:11.798Z,3.2
2023-02-24T06:42:59.220Z,3.2
2023-02-24T06:43:46.534Z,3.2
2023-02-24T06:44:33.847Z,3.2
2023-02-24T06:45:21.266Z,3.2
2023-02-24T06:46:08.661Z,5.6
2023-02-24T06:46:56.040Z,5.6
2023-02-24T06:47:43.431Z,5.6
2023-02-24T06:48:30.730Z,5.6
2023-02-24T06:49:18.027Z,5.6
2023-02-24T06:50:05.481Z,5.6
2023-02-24T06:50:52.795Z,5.6
2023-02-24T06:51:40.145Z,5.6
2023-02-24T06:52:27.520Z,5.6
2023-02-24T06:53:14.816Z,5.6
2023-02-24T06:54:02.136Z,5.6
2023-02-24T06:54:49.616Z,5.6
2023-02-24T06:55:36.966Z,5.6
2023-02-24T06:56:24.334Z,5.6
2023-02-24T06:57:11.714Z,5.6
2023-02-24T06:57:59.031Z,5.6
2023-02-24T06:58:46.396Z,5.6
2023-02-24T06:59:33.765Z,5.6
2023-02-24T07:00:21.096Z,5.6
2023-02-24T07:01:08.450Z,5.6
2023-02-24T07:01:55.920Z,5.6
2023-02-24T07:02:43.271Z,5.6
2023-02-24T07:03:30.609Z,5.6
2023-02-24T07:04:18.196Z,5.6
2023-02-24T07:05:05.554Z,5.6
2023-02-24T07:05:52.884Z,5.6
2023-02-24T07:06:40.322Z,5.6
2023-02-24T07:07:27.662Z,5.6
2023-02-24T07:08:14.982Z,5.6
2023-02-24T07:09:02.400Z,5.6
2023-02-24T07:09:49.741Z,5.6
2023-02-24T07:10:37.050Z,5.6
2023-02-24T07:11:24.512Z,5.6
2023-02-24T07:12:11.825Z,5.6
2023-02-24T07:12:59.196Z,5.6
2023-02-24T07:13:46.560Z,5.6
2023-02-24T07:14:33.866Z,5.6
2023-02-24T07:15:21.169Z,5.6
2023-02-24T07:16:08.634Z,5.6
2023-02-24T07:16:55.991Z,5.6
2023-02-24T07:17:43.380Z,5.6
2023-02-24T07:18:30.746Z,5.6
2023-02-24T07:19:18.072Z,5.6
2023-02-24T07:20:05.404Z,5.6
2023-02-24T07:20:52.807Z,5.6
2023-02-24T07:21:40.400Z,5.6
2023-02-24T07:22:27.711Z,5.6
2023-02-24T07:23:15.137Z,5.6
2023-02-24T07:24:02.664Z,5.6
2023-02-24T07:24:49.982Z,5.6
2023-02-24T07:25:37.403Z,5.6
2023-02-24T07:26:24.721Z,5.6
2023-02-24T07:27:12.121Z,5.6
2023-02-24T07:27:59.569Z,5.6
2023-02-24T07:28:46.915Z,5.6
2023-02-24T07:29:34.218Z,5.6
2023-02-24T07:30:21.627Z,5.6
2023-02-24T07:31:09.039Z,5.6
2023-02-24T07:31:56.674Z,5.6
2023-02-24T07:32:44.120Z,5.6
2023-02-24T07:33:31.527Z,5.6
2023-02-24T07:34:18.862Z,5.6
2023-02-24T07:35:06.269Z,5.6
2023-02-24T07:35:53.669Z,5.6
2023-02-24T07:36:41.111Z,5.6
2023-02-24T07:37:28.488Z,5.6
2023-02-24T07:38:16.046Z,5.6
2023-02-24T07:39:03.306Z,5.6
2023-02-24T07:39:50.792Z,5.6
2023-02-24T07:40:38.133Z,5.6
2023-02-24T07:41:25.485Z,5.6
2023-02-24T07:42:12.800Z,5.6
2023-02-24T07:43:00.117Z,5.6
2023-02-24T07:43:47.431Z,5.6
2023-02-24T07:44:34.751Z,5.6
2023-02-24T07:45:22.163Z,5.6
2023-02-24T07:46:09.580Z,6.4
2023-02-24T07:46:56.895Z,6.4
2023-02-24T07:47:44.209Z,6.4
2023-02-24T07:48:31.531Z,6.4
2023-02-24T07:49:18.853Z,6.4
2023-02-24T07:50:06.208Z,6.4
2023-02-24T07:50:53.518Z,6.4
2023-02-24T07:51:40.858Z,6.4
2023-02-24T07:52:28.266Z,6.4
2023-02-24T07:53:15.627Z,6.4
2023-02-24T07:54:02.966Z,6.4
2023-02-24T07:54:50.278Z,6.4
2023-02-24T07:55:37.624Z,6.4
2023-02-24T07:56:24.940Z,6.4
2023-02-24T07:57:12.270Z,6.4
2023-02-24T07:57:59.593Z,6.4
2023-02-24T07:58:46.937Z,6.4
2023-02-24T07:59:34.265Z,6.4
2023-02-24T08:00:21.581Z,6.4
2023-02-24T08:01:08.912Z,6.4
2023-02-24T08:01:56.372Z,6.4
2023-02-24T08:02:43.744Z,6.4
2023-02-24T08:03:31.115Z,6.4
2023-02-24T08:04:18.532Z,6.4
2023-02-24T08:05:05.965Z,6.4
2023-02-24T08:05:53.312Z,6.4
2023-02-24T08:06:40.908Z,6.4
2023-02-24T08:07:28.244Z,6.4
2023-02-24T08:08:15.625Z,6.4
2023-02-24T08:09:02.937Z,6.4
2023-02-24T08:09:50.510Z,6.4
2023-02-24T08:10:37.858Z,6.4
2023-02-24T08:11:25.200Z,6.4
2023-02-24T08:12:12.776Z,6.4
2023-02-24T08:13:00.080Z,6.4
2023-02-24T08:13:47.396Z,6.4
2023-02-24T08:14:34.721Z,6.4
2023-02-24T08:15:22.354Z,6.4
2023-02-24T08:16:09.846Z,6.4
2023-02-24T08:16:57.717Z,6.4
2023-02-24T08:17:45.037Z,6.4
2023-02-24T08:18:32.703Z,6.4
2023-02-24T08:19:20.060Z,6.4
2023-02-24T08:20:07.491Z,6.4
2023-02-24T08:20:54.837Z,6.4
2023-02-24T08:21:42.427Z,6.4
2023-02-24T08:22:29.769Z,6.4
2023-02-24T08:23:17.655Z,6.4
2023-02-24T08:24:05.120Z,6.4
2023-02-24T08:24:52.451Z,6.4
2023-02-24T08:25:39.773Z,6.4
2023-02-24T08:26:27.087Z,6.4
2023-02-24T08:27:14.429Z,6.4
2023-02-24T08:28:07.856Z,6.4
2023-02-24T08:28:56.071Z,6.4
2023-02-24T08:29:43.482Z,6.4
2023-02-24T08:30:30.823Z,6.4
2023-02-24T08:31:18.529Z,6.4
2023-02-24T08:32:06.207Z,6.4
2023-02-24T08:32:53.691Z,6.4
2023-02-24T08:33:41.164Z,6.4
2023-02-24T08:34:28.462Z,6.4
2023-02-24T08:35:15.928Z,6.4
2023-02-24T08:36:03.262Z,6.4
2023-02-24T08:36:50.612Z,6.4
2023-02-24T08:37:38.032Z,6.4
2023-02-24T08:38:26.574Z,6.4
2023-02-24T08:39:13.942Z,6.4
2023-02-24T08:40:01.385Z,6.4
2023-02-24T08:40:48.708Z,6.4
2023-02-24T08:41:36.032Z,6.4
2023-02-24T08:42:23.481Z,6.4
2023-02-24T08:43:10.778Z,6.4
2023-02-24T08:43:58.117Z,6.4
2023-02-24T08:44:45.561Z,6.4
2023-02-24T08:45:32.896Z,6.4
2023-02-24T08:46:20.245Z,5.4
2023-02-24T08:47:07.678Z,5.4
2023-02-24T08:47:54.998Z,5.4
2023-02-24T08:48:42.465Z,5.4
2023-02-24T08:49:29.893Z,5.4
2023-02-24T08:50:17.227Z,5.4
2023-02-24T08:51:04.559Z,5.4
2023-02-24T08:51:51.952Z,5.4
2023-02-24T08:52:39.272Z,5.4
2023-02-24T08:53:26.606Z,5.4
2023-02-24T08:54:14.050Z,5.4
2023-02-24T08:55:01.428Z,5.4
2023-02-24T08:55:48.753Z,5.4
2023-02-24T08:56:36.191Z,5.4
2023-02-24T08:57:23.510Z,5.4
2023-02-24T08:58:10.836Z,5.4
2023-02-24T08:58:58.317Z,5.4
2023-02-24T08:59:45.876Z,5.4
2023-02-24T09:00:33.791Z,5.4
2023-02-24T09:01:21.465Z,5.4
2023-02-24T09:02:09.031Z,5.4
2023-02-24T09:02:56.658Z,5.4
2023-02-24T09:03:43.969Z,5.4
2023-02-24T09:04:31.306Z,5.4
2023-02-24T09:05:18.724Z,5.4
2023-02-24T09:06:06.034Z,5.4
2023-02-24T09:06:57.731Z,5.4
2023-02-24T09:07:45.184Z,5.4
2023-02-24T09:08:32.504Z,5.4
2023-02-24T09:09:19.821Z,5.4
2023-02-24T09:10:07.171Z,5.4
2023-02-24T09:10:54.572Z,5.4
2023-02-24T09:11:41.889Z,5.4
2023-02-24T09:12:29.398Z,5.4
2023-02-24T09:13:16.764Z,5.4
2023-02-24T09:14:04.111Z,5.4
2023-02-24T09:14:51.418Z,5.4
2023-02-24T09:15:38.877Z,5.4
2023-02-24T09:16:26.250Z,5.4
2023-02-24T09:17:13.582Z,5.4
2023-02-24T09:18:01.080Z,5.4
2023-02-24T09:18:48.411Z,5.4
2023-02-24T09:19:35.990Z,5.4
2023-02-24T09:20:23.292Z,5.4
2023-02-24T09:21:10.623Z,5.4
2023-02-24T09:21:57.957Z,5.4
2023-02-24T09:22:45.359Z,5.4
2023-02-24T09:23:32.691Z,5.4
2023-02-24T09:24:20.024Z,5.4
2023-02-24T09:25:07.416Z,5.4
2023-02-24T09:25:54.803Z,5.4
2023-02-24T09:26:42.241Z,5.4
2023-02-24T09:27:29.588Z,5.4
2023-02-24T09:28:17.392Z,5.4
2023-02-24T09:29:05.000Z,5.4
2023-02-24T09:29:52.404Z,5.4
2023-02-24T09:30:39.745Z,5.4
2023-02-24T09:31:27.396Z,5.4
2023-02-24T09:32:15.206Z,5.4
2023-02-24T09:33:02.746Z,5.4
2023-02-24T09:33:50.114Z,5.4
2023-02-24T09:34:37.433Z,5.4
2023-02-24T09:35:24.847Z,5.4
2023-02-24T09:36:12.175Z,5.4
2023-02-24T09:36:59.495Z,5.4
2023-02-24T09:37:46.975Z,5.4
2023-02-24T09:38:34.279Z,5.4
2023-02-24T09:39:21.598Z,5.4
2023-02-24T09:40:09.045Z,5.4
2023-02-24T09:40:56.426Z,5.4
2023-02-24T09:41:43.739Z,5.4
2023-02-24T09:42:31.232Z,5.4
2023-02-24T09:43:18.540Z,5.4
2023-02-24T09:44:06.360Z,5.4
2023-02-24T09:44:53.737Z,5.4
2023-02-24T09:45:41.354Z,5.4
2023-02-24T09:46:28.873Z,7.2
2023-02-24T09:47:16.286Z,7.2
2023-02-24T09:48:03.655Z,7.2
2023-02-24T09:48:50.999Z,7.2
2023-02-24T09:49:38.367Z,7.2
2023-02-24T09:50:55.063Z,7.2
2023-02-24T09:51:23.507Z,7.2
2023-02-24T09:52:10.993Z,7.2
2023-02-24T09:53:06.383Z,7.2
2023-02-24T09:53:55.787Z,7.2
2023-02-24T09:54:43.233Z,7.2
2023-02-24T09:55:30.706Z,7.2
2023-02-24T09:56:18.156Z,7.2
2023-02-24T09:57:05.608Z,7.2
2023-02-24T09:57:52.942Z,7.2
2023-02-24T09:58:43.922Z,7.2
2023-02-24T09:59:31.611Z,7.2
2023-02-24T10:00:19.492Z,7.2
2023-02-24T10:01:07.079Z,7.2
2023-02-24T10:01:54.526Z,7.2
2023-02-24T10:02:41.985Z,7.2
2023-02-24T10:03:29.400Z,7.2
2023-02-24T10:04:21.103Z,7.2
2023-02-24T10:05:09.087Z,7.2
2023-02-24T10:05:56.430Z,7.2
2023-02-24T10:06:43.744Z,7.2
2023-02-24T10:07:31.053Z,7.2
2023-02-24T10:08:18.595Z,7.2
2023-02-24T10:09:05.922Z,7.2
2023-02-24T10:09:53.392Z,7.2
2023-02-24T10:10:40.737Z,7.2
2023-02-24T10:11:28.064Z,7.2
2023-02-24T10:12:15.394Z,7.2
2023-02-24T10:13:02.831Z,7.2
2023-02-24T10:13:50.199Z,7.2
2023-02-24T10:14:42.945Z,7.2
2023-02-24T10:15:30.933Z,7.2
2023-02-24T10:16:18.439Z,7.2
2023-02-24T10:17:05.794Z,7.2
2023-02-24T10:17:53.138Z,7.2
2023-02-24T10:18:40.571Z,7.2
2023-02-24T10:19:27.937Z,7.2
2023-02-24T10:20:15.362Z,7.2
2023-02-24T10:21:02.834Z,7.2
2023-02-24T10:21:50.316Z,7.2
2023-02-24T10:22:37.632Z,7.2
2023-02-24T10:23:25.098Z,7.2
2023-02-24T10:24:12.469Z,7.2
2023-02-24T10:24:59.800Z,7.2
2023-02-24T10:25:47.209Z,7.2
2023-02-24T10:26:34.477Z,7.2
2023-02-24T10:27:21.775Z,7.2
2023-02-24T10:28:09.207Z,7.2
2023-02-24T10:28:56.677Z,7.2
2023-02-24T10:29:44.022Z,7.2
2023-02-24T10:30:31.501Z,7.2
2023-02-24T10:31:19.202Z,7.2
2023-02-24T10:32:07.147Z,7.2
2023-02-24T10:32:54.976Z,7.2
2023-02-24T10:33:42.339Z,7.2
2023-02-24T10:34:29.680Z,7.2
2023-02-24T10:35:17.455Z,7.2
2023-02-24T10:36:05.511Z,7.2
2023-02-24T10:36:53.637Z,7.2
2023-02-24T10:37:41.001Z,7.2
2023-02-24T10:38:28.306Z,7.2
2023-02-24T10:39:15.672Z,7.2
2023-02-24T10:40:03.042Z,7.2
2023-02-24T10:40:50.365Z,7.2
2023-02-24T10:41:37.762Z,7.2
2023-02-24T10:42:25.112Z,7.2
2023-02-24T10:43:12.422Z,7.2
2023-02-24T10:43:59.842Z,7.2
2023-02-24T10:44:51.191Z,7.2
2023-02-24T10:45:44.595Z,7.2
2023-02-24T10:46:41.141Z,8.4
2023-02-24T10:47:29.175Z,8.4
2023-02-24T10:48:16.565Z,8.4
2023-02-24T10:49:03.913Z,8.4
2023-02-24T10:49:51.239Z,8.4
2023-02-24T10:50:41.394Z,8.4
2023-02-24T10:51:34.342Z,8.4
2023-02-24T10:52:21.759Z,8.4
2023-02-24T10:53:09.093Z,8.4
2023-02-24T10:53:56.436Z,8.4
2023-02-24T10:54:44.307Z,8.4
2023-02-24T10:55:31.863Z,8.4
2023-02-24T10:56:19.593Z,8.4
2023-02-24T10:57:07.170Z,8.4
2023-02-24T10:57:59.211Z,8.4
2023-02-24T10:58:46.825Z,8.4
2023-02-24T10:59:34.150Z,8.4
2023-02-24T11:00:21.529Z,8.4
2023-02-24T11:01:08.965Z,8.4
2023-02-24T11:01:56.407Z,8.4
2023-02-24T11:02:43.745Z,8.4
2023-02-24T11:03:32.967Z,8.4
2023-02-24T11:05:07.724Z,8.4
2023-02-24T11:05:55.118Z,8.4
2023-02-24T11:06:42.567Z,8.4
2023-02-24T11:07:29.907Z,8.4
2023-02-24T11:08:17.263Z,8.4
2023-02-24T11:09:04.693Z,8.4
2023-02-24T11:09:52.028Z,8.4
2023-02-24T11:10:39.374Z,8.4
2023-02-24T11:11:26.674Z,8.4
2023-02-24T11:12:14.077Z,8.4
2023-02-24T11:13:09.230Z,8.4
2023-02-24T11:13:57.489Z,8.4
2023-02-24T11:14:44.879Z,8.4
2023-02-24T11:15:32.241Z,8.4
2023-02-24T11:16:19.843Z,8.4
2023-02-24T11:17:07.194Z,8.4
2023-02-24T11:17:54.575Z,8.4
2023-02-24T11:18:41.967Z,8.4
2023-02-24T11:19:29.317Z,8.4
2023-02-24T11:20:16.702Z,8.4
2023-02-24T11:21:04.049Z,8.4
2023-02-24T11:21:51.468Z,8.4
2023-02-24T11:22:38.788Z,8.4
2023-02-24T11:23:26.124Z,8.4
2023-02-24T11:24:13.540Z,8.4
2023-02-24T11:25:01.867Z,8.4
2023-02-24T11:25:50.458Z,8.4
2023-02-24T11:26:37.955Z,8.4
2023-02-24T11:27:25.287Z,8.4
2023-02-24T11:28:12.650Z,8.4
2023-02-24T11:28:59.988Z,8.4
2023-02-24T11:29:47.463Z,8.4
2023-02-24T11:30:34.828Z,8.4
2023-02-24T11:31:22.703Z,8.4
2023-02-24T11:32:12.688Z,8.4
2023-02-24T11:33:01.523Z,8.4
2023-02-24T11:33:48.865Z,8.4
2023-02-24T11:34:36.191Z,8.4
2023-02-24T11:35:24.093Z,8.4
2023-02-24T11:36:11.996Z,8.4
2023-02-24T11:36:59.297Z,8.4
2023-02-24T11:37:46.642Z,8.4
2023-02-24T11:38:33.981Z,8.4
2023-02-24T11:39:21.812Z,8.4
2023-02-24T11:40:09.556Z,8.4
2023-02-24T11:40:56.862Z,8.4
2023-02-24T11:41:44.207Z,8.4
2023-02-24T11:42:31.679Z,8.4
2023-02-24T11:43:19.015Z,8.4
2023-02-24T11:44:06.491Z,8.4
2023-02-24T11:44:53.817Z,8.4
2023-02-24T11:45:41.135Z,8.4
2023-02-24T11:46:28.540Z,5.8
2023-02-24T11:47:15.915Z,5.8
2023-02-24T11:48:03.249Z,5.8
2023-02-24T11:48:51.022Z,5.8
2023-02-24T11:49:38.350Z,5.8
2023-02-24T11:50:25.733Z,5.8
2023-02-24T11:51:13.424Z,5.8
2023-02-24T11:52:00.924Z,5.8
2023-02-24T11:52:48.386Z,5.8
2023-02-24T11:53:35.729Z,5.8
2023-02-24T11:54:23.053Z,5.8
2023-02-24T11:55:10.452Z,5.8
2023-02-24T11:55:58.985Z,5.8
2023-02-24T11:56:46.595Z,5.8
2023-02-24T11:57:34.059Z,5.8
2023-02-24T11:58:21.376Z,5.8
2023-02-24T11:59:08.826Z,5.8
2023-02-24T11:59:56.153Z,5.8
2023-02-24T12:00:43.492Z,5.8
2023-02-24T12:01:30.801Z,5.8
2023-02-24T12:02:18.325Z,5.8
2023-02-24T12:03:05.745Z,5.8
2023-02-24T12:03:53.166Z,5.8
2023-02-24T12:04:40.511Z,5.8
2023-02-24T12:05:27.866Z,5.8
2023-02-24T12:06:15.318Z,5.8
2023-02-24T12:07:02.683Z,5.8
2023-02-24T12:07:50.403Z,5.8
2023-02-24T12:08:37.746Z,5.8
2023-02-24T12:09:25.398Z,5.8
2023-02-24T12:10:17.237Z,5.8
2023-02-24T12:11:05.116Z,5.8
2023-02-24T12:11:52.446Z,5.8
2023-02-24T12:12:39.851Z,5.8
2023-02-24T12:13:27.666Z,5.8
2023-02-24T12:14:15.290Z,5.8
2023-02-24T12:15:02.676Z,5.8
2023-02-24T12:15:50.049Z,5.8
2023-02-24T12:16:37.462Z,5.8
2023-02-24T12:17:25.316Z,5.8
2023-02-24T12:18:13.844Z,5.8
2023-02-24T12:19:01.399Z,5.8
2023-02-24T12:19:48.725Z,5.8
2023-02-24T12:20:36.043Z,5.8
2023-02-24T12:21:23.615Z,5.8
2023-02-24T12:22:11.180Z,5.8
2023-02-24T12:22:58.499Z,5.8
2023-02-24T12:23:45.887Z,5.8
2023-02-24T12:24:33.428Z,5.8
2023-02-24T12:25:20.813Z,5.8
2023-02-24T12:26:08.140Z,5.8
2023-02-24T12:26:55.573Z,5.8
2023-02-24T12:27:42.925Z,5.8
2023-02-24T12:28:30.248Z,5.8
2023-02-24T12:29:17.571Z,5.8
2023-02-24T12:30:04.993Z,5.8
2023-02-24T12:30:52.355Z,5.8
2023-02-24T12:31:39.755Z,5.8
2023-02-24T12:32:27.292Z,5.8
2023-02-24T12:33:14.833Z,5.8
2023-02-24T12:34:02.156Z,5.8
2023-02-24T12:34:49.543Z,5.8
2023-02-24T12:35:36.895Z,5.8
2023-02-24T12:36:24.273Z,5.8
2023-02-24T12:37:11.654Z,5.8
2023-02-24T12:37:58.980Z,5.8
2023-02-24T12:38:46.310Z,5.8
2023-02-24T12:39:33.628Z,5.8
2023-02-24T12:40:20.957Z,5.8
2023-02-24T12:41:08.298Z,5.8
2023-02-24T12:41:55.628Z,5.8
2023-02-24T12:42:42.975Z,5.8
2023-02-24T12:43:30.315Z,5.8
2023-02-24T12:44:17.634Z,5.8
2023-02-24T12:45:04.984Z,5.8
2023-02-24T12:45:52.343Z,5.4
2023-02-24T12:46:39.694Z,5.4
2023-02-24T12:47:27.980Z,5.4
2023-02-24T12:48:15.369Z,5.4
2023-02-24T12:49:02.713Z,5.4
2023-02-24T12:49:50.028Z,5.4
2023-02-24T12:50:37.461Z,5.4
2023-02-24T12:51:24.998Z,5.4
2023-02-24T12:52:12.622Z,5.4
2023-02-24T12:52:59.969Z,5.4
2023-02-24T12:53:47.294Z,5.4
2023-02-24T12:54:34.628Z,5.4
2023-02-24T12:55:21.939Z,5.4
2023-02-24T12:56:09.485Z,5.4
2023-02-24T12:56:56.816Z,5.4
2023-02-24T12:57:44.132Z,5.4
2023-02-24T12:58:31.475Z,5.4
2023-02-24T12:59:18.828Z,5.4
2023-02-24T13:00:06.186Z,5.4
2023-02-24T13:00:53.550Z,5.4
2023-02-24T13:01:40.876Z,5.4
2023-02-24T13:02:28.246Z,5.4
2023-02-24T13:03:15.591Z,5.4
2023-02-24T13:04:02.972Z,5.4
2023-02-24T13:04:50.327Z,5.4
2023-02-24T13:05:37.685Z,5.4
2023-02-24T13:06:24.986Z,5.4
2023-02-24T13:07:12.330Z,5.4
2023-02-24T13:07:59.684Z,5.4
2023-02-24T13:08:47.086Z,5.4
2023-02-24T13:09:34.414Z,5.4
2023-02-24T13:10:21.845Z,5.4
2023-02-24T13:11:09.174Z,5.4
2023-02-24T13:11:56.516Z,5.4
2023-02-24T13:12:43.841Z,5.4
2023-02-24T13:13:31.178Z,5.4
2023-02-24T13:14:18.575Z,5.4
2023-02-24T13:15:05.951Z,5.4
2023-02-24T13:15:53.325Z,5.4
2023-02-24T13:16:40.815Z,5.4
2023-02-24T13:17:28.166Z,5.4
2023-02-24T13:18:15.506Z,5.4
2023-02-24T13:19:02.880Z,5.4
2023-02-24T13:19:50.197Z,5.4
2023-02-24T13:20:37.548Z,5.4
2023-02-24T13:21:25.099Z,5.4
2023-02-24T13:22:12.506Z,5.4
2023-02-24T13:22:59.847Z,5.4
2023-02-24T13:23:47.159Z,5.4
2023-02-24T13:24:34.588Z,5.4
2023-02-24T13:25:21.951Z,5.4
2023-02-24T13:26:09.273Z,5.4
2023-02-24T13:26:56.614Z,5.4
2023-02-24T13:27:43.928Z,5.4
2023-02-24T13:28:31.801Z,5.4
2023-02-24T13:29:19.553Z,5.4
2023-02-24T13:30:06.923Z,5.4
2023-02-24T13:30:54.322Z,5.4
2023-02-24T13:31:41.769Z,5.4
2023-02-24T13:32:29.418Z,5.4
2023-02-24T13:33:17.020Z,5.4
2023-02-24T13:34:04.347Z,5.4
2023-02-24T13:34:51.971Z,5.4
2023-02-24T13:35:39.305Z,5.4
2023-02-24T13:36:26.633Z,5.4
2023-02-24T13:37:13.947Z,5.4
2023-02-24T13:38:01.275Z,5.4
2023-02-24T13:38:48.683Z,5.4
2023-02-24T13:39:36.022Z,5.4
2023-02-24T13:40:23.424Z,5.4
2023-02-24T13:41:10.810Z,5.4
2023-02-24T13:41:58.191Z,5.4
2023-02-24T13:42:45.529Z,5.4
2023-02-24T13:43:32.885Z,5.4
2023-02-24T13:44:20.233Z,5.4
2023-02-24T13:45:07.560Z,5.4
2023-02-24T13:45:54.964Z,9.1
2023-02-24T13:46:42.360Z,9.1
2023-02-24T13:47:29.685Z,9.1
2023-02-24T13:48:17.101Z,9.1
2023-02-24T13:49:04.493Z,9.1
2023-02-24T13:49:51.828Z,9.1
2023-02-24T13:50:39.156Z,9.1
2023-02-24T13:51:26.477Z,9.1
2023-02-24T13:52:13.845Z,9.1
2023-02-24T13:53:01.196Z,9.1
2023-02-24T13:53:48.567Z,9.1
2023-02-24T13:54:35.879Z,9.1
2023-02-24T13:55:23.196Z,9.1
2023-02-24T13:56:10.672Z,9.1
2023-02-24T13:56:57.969Z,9.1
2023-02-24T13:57:45.272Z,9.1
2023-02-24T13:58:32.622Z,9.1
2023-02-24T13:59:19.987Z,9.1
2023-02-24T14:00:07.355Z,9.1
2023-02-24T14:00:54.763Z,9.1
2023-02-24T14:01:42.194Z,9.1
2023-02-24T14:02:29.558Z,9.1
2023-02-24T14:03:16.942Z,9.1
2023-02-24T14:04:04.263Z,9.1
2023-02-24T14:04:51.583Z,9.1
2023-02-24T14:05:38.909Z,9.1
2023-02-24T14:06:26.252Z,9.1
2023-02-24T14:07:13.584Z,9.1
2023-02-24T14:08:00.890Z,9.1
2023-02-24T14:08:48.274Z,9.1
2023-02-24T14:09:35.602Z,9.1
2023-02-24T14:10:22.912Z,9.1
2023-02-24T14:11:10.228Z,9.1
2023-02-24T14:11:57.567Z,9.1
2023-02-24T14:12:44.915Z,9.1
2023-02-24T14:13:32.363Z,9.1
2023-02-24T14:14:19.694Z,9.1
2023-02-24T14:15:07.408Z,9.1
2023-02-24T14:15:54.936Z,9.1
2023-02-24T14:16:42.338Z,9.1
2023-02-24T14:17:29.668Z,9.1
2023-02-24T14:18:17.116Z,9.1
2023-02-24T14:19:04.485Z,9.1
2023-02-24T14:19:51.789Z,9.1
2023-02-24T14:20:39.116Z,9.1
2023-02-24T14:21:26.450Z,9.1
2023-02-24T14:22:13.780Z,9.1
2023-02-24T14:23:01.089Z,9.1
2023-02-24T14:23:48.402Z,9.1
2023-02-24T14:24:35.721Z,9.1
2023-02-24T14:25:23.053Z,9.1
2023-02-24T14:26:10.382Z,9.1
2023-02-24T14:26:58.167Z,9.1
2023-02-24T14:27:45.483Z,9.1
2023-02-24T14:28:32.929Z,9.1
2023-02-24T14:29:20.244Z,9.1
2023-02-24T14:30:07.659Z,9.1
2023-02-24T14:30:55.130Z,9.1
2023-02-24T14:31:42.709Z,9.1
2023-02-24T14:32:30.200Z,9.1
2023-02-24T14:33:17.565Z,9.1
2023-02-24T14:34:04.939Z,9.1
2023-02-24T14:34:52.266Z,9.1
2023-02-24T14:35:39.680Z,9.1
2023-02-24T14:36:27.041Z,9.1
2023-02-24T14:37:14.363Z,9.1
2023-02-24T14:38:02.389Z,9.1
2023-02-24T14:38:49.818Z,9.1
2023-02-24T14:39:37.115Z,9.1
2023-02-24T14:40:24.448Z,9.1
2023-02-24T14:41:11.816Z,9.1
2023-02-24T14:41:59.131Z,9.1
2023-02-24T14:42:46.482Z,9.1
2023-02-24T14:43:33.856Z,9.1
2023-02-24T14:44:21.194Z,9.1
2023-02-24T14:45:08.498Z,9.1
2023-02-24T14:45:55.935Z,7.5
2023-02-24T14:46:43.343Z,7.5
2023-02-24T14:47:30.769Z,7.5
2023-02-24T14:48:18.108Z,7.5
2023-02-24T14:49:05.448Z,7.5
2023-02-24T14:49:52.784Z,7.5
2023-02-24T14:50:40.183Z,7.5
2023-02-24T14:51:27.535Z,7.5
2023-02-24T14:52:15.101Z,7.5
2023-02-24T14:53:02.414Z,7.5
2023-02-24T14:53:49.720Z,7.5
2023-02-24T14:54:37.061Z,7.5
2023-02-24T14:55:24.472Z,7.5
2023-02-24T14:56:11.978Z,7.5
2023-02-24T14:56:59.550Z,7.5
2023-02-24T14:57:46.863Z,7.5
2023-02-24T14:58:34.190Z,7.5
2023-02-24T14:59:21.518Z,7.5
2023-02-24T15:00:08.940Z,7.5
2023-02-24T15:00:56.281Z,7.5
2023-02-24T15:01:43.713Z,7.5
2023-02-24T15:02:31.110Z,7.5
2023-02-24T15:03:18.501Z,7.5
2023-02-24T15:04:05.866Z,7.5
2023-02-24T15:04:53.294Z,7.5
2023-02-24T15:05:40.609Z,7.5
2023-02-24T15:06:27.939Z,7.5
2023-02-24T15:07:15.352Z,7.5
2023-02-24T15:08:02.884Z,7.5
2023-02-24T15:08:50.253Z,7.5
2023-02-24T15:09:37.641Z,7.5
2023-02-24T15:10:24.972Z,7.5
2023-02-24T15:11:12.305Z,7.5
2023-02-24T15:11:59.792Z,7.5
2023-02-24T15:12:47.160Z,7.5
2023-02-24T15:13:34.486Z,7.5
2023-02-24T15:14:21.907Z,7.5
2023-02-24T15:15:09.253Z,7.5
2023-02-24T15:15:56.587Z,7.5
2023-02-24T15:16:44.147Z,7.5
2023-02-24T15:17:31.650Z,7.5
2023-02-24T15:18:19.053Z,7.5
2023-02-24T15:19:06.451Z,7.5
2023-02-24T15:19:53.801Z,7.5
2023-02-24T15:20:41.141Z,7.5
2023-02-24T15:21:28.563Z,7.5
2023-02-24T15:22:15.887Z,7.5
2023-02-24T15:23:03.312Z,7.5
2023-02-24T15:23:50.689Z,7.5
2023-02-24T15:24:38.049Z,7.5
2023-02-24T15:25:33.839Z,7.5
2023-02-24T15:26:23.039Z,7.5
2023-02-24T15:27:10.480Z,7.5
2023-02-24T15:27:58.094Z,7.5
2023-02-24T15:28:45.588Z,7.5
2023-02-24T15:29:32.932Z,7.5
2023-02-24T15:30:20.317Z,7.5
2023-02-24T15:31:10.875Z,7.5
2023-02-24T15:31:58.688Z,7.5
2023-02-24T15:32:46.219Z,7.5
2023-02-24T15:33:33.774Z,7.5
2023-02-24T15:34:21.107Z,7.5